createdAt,value
2023-04-05T00:00:35.359Z,4.40
2023-04-05T00:03:04.017Z,5.32
2023-04-05T00:05:34.637Z,8.43
2023-04-05T00:08:02.920Z,2.90
2023-04-05T00:10:32.303Z,2.28
2023-04-05T00:13:00.695Z,1.60
2023-04-05T00:15:29.187Z,5.70
2023-04-05T00:17:58.215Z,2.72
2023-04-05T00:20:26.405Z,4.22
2023-04-05T00:22:55.992Z,1.52
2023-04-05T00:25:24.164Z,5.10
2023-04-05T00:27:52.469Z,3.03
2023-04-05T00:30:21.890Z,3.15
2023-04-05T00:32:50.918Z,3.97
2023-04-05T00:35:19.041Z,3.65
2023-04-05T00:37:47.159Z,7.70
2023-04-05T00:40:16.805Z,2.70
2023-04-05T00:42:45.045Z,3.15
2023-04-05T00:45:13.219Z,10.85
2023-04-05T00:47:43.411Z,3.10
2023-04-05T00:50:13.550Z,4.72
2023-04-05T00:52:42.861Z,4.53
2023-04-05T00:55:12.431Z,6.30
2023-04-05T00:57:42.559Z,5.10
2023-04-05T01:00:12.153Z,1.30
2023-04-05T01:02:53.276Z,2.22
2023-04-05T01:05:32.892Z,1.95
2023-04-05T01:08:09.187Z,3.10
2023-04-05T01:10:44.184Z,2.78
2023-04-05T01:13:14.026Z,1.92
2023-04-05T01:15:42.627Z,0.47
2023-04-05T01:18:12.037Z,1.08
2023-04-05T01:20:53.069Z,1.52
2023-04-05T01:23:33.610Z,3.22
2023-04-05T01:26:28.426Z,2.63
2023-04-05T01:29:29.635Z,0.80
2023-04-05T01:32:04.614Z,4.13
2023-04-05T01:34:41.438Z,5.38
2023-04-05T01:37:13.772Z,1.30
2023-04-05T01:39:42.108Z,2.05
2023-04-05T01:42:11.746Z,2.05
2023-04-05T01:44:39.892Z,1.40
2023-04-05T01:47:09.843Z,0.93
2023-04-05T01:49:37.987Z,0.40
2023-04-05T01:52:06.213Z,0.68
2023-04-05T01:54:34.374Z,0.20
2023-04-05T01:57:02.461Z,0.52
2023-04-05T01:59:30.777Z,0.30
2023-04-05T02:01:59.030Z,0.77
2023-04-05T02:04:28.587Z,0.70
2023-04-05T02:06:56.774Z,0.30
2023-04-05T02:09:25.021Z,0.52
2023-04-05T02:11:53.220Z,0.20
2023-04-05T02:14:21.406Z,0.25
2023-04-05T02:16:49.590Z,1.55
2023-04-05T02:19:23.145Z,0.30
2023-04-05T02:21:54.758Z,0.88
2023-04-05T02:24:23.016Z,0.40
2023-04-05T02:26:51.363Z,0.20
2023-04-05T02:29:19.407Z,1.00
2023-04-05T02:31:47.672Z,0.20
2023-04-05T02:34:16.211Z,0.10
2023-04-05T02:36:44.316Z,0.20
2023-04-05T02:39:14.577Z,1.77
2023-04-05T02:41:42.777Z,0.85
2023-04-05T02:44:11.093Z,0.20
2023-04-05T02:46:39.213Z,1.63
2023-04-05T02:49:07.609Z,1.85
2023-04-05T02:51:35.807Z,0.10
2023-04-05T02:54:04.388Z,0.10
2023-04-05T02:56:34.334Z,1.48
2023-04-05T02:59:02.688Z,0.10
2023-04-05T03:01:32.671Z,0.75
2023-04-05T03:04:01.050Z,0.22
2023-04-05T03:06:31.683Z,0.40
2023-04-05T03:09:02.243Z,0.10
2023-04-05T03:11:30.435Z,0.10
2023-04-05T03:14:00.325Z,0.30
2023-04-05T03:16:28.725Z,2.60
2023-04-05T03:18:57.281Z,2.47
2023-04-05T03:21:26.735Z,0.63
2023-04-05T03:23:55.436Z,1.98
2023-04-05T03:26:24.628Z,0.20
2023-04-05T03:28:52.737Z,0.65
2023-04-05T03:31:22.443Z,0.40
2023-04-05T03:33:50.609Z,1.40
2023-04-05T03:36:19.924Z,0.98
2023-04-05T03:38:48.078Z,0.35
2023-04-05T03:41:16.322Z,2.08
2023-04-05T03:43:44.429Z,0.40
2023-04-05T03:46:12.755Z,2.22
2023-04-05T03:48:42.275Z,0.38
2023-04-05T03:51:10.386Z,1.05
2023-04-05T03:53:38.463Z,1.77
2023-04-05T03:56:06.748Z,0.17
2023-04-05T03:58:35.018Z,2.28
2023-04-05T04:01:03.043Z,2.58
2023-04-05T04:03:31.768Z,1.08
2023-04-05T04:06:01.718Z,0.93
2023-04-05T04:08:29.946Z,0.40
2023-04-05T04:10:58.141Z,1.17
2023-04-05T04:13:26.715Z,1.17
2023-04-05T04:15:54.806Z,0.85
2023-04-05T04:18:22.958Z,1.15
2023-04-05T04:20:52.453Z,1.98
2023-04-05T04:23:21.972Z,1.20
2023-04-05T04:25:55.019Z,1.00
2023-04-05T04:28:25.219Z,1.73
2023-04-05T04:30:53.627Z,1.00
2023-04-05T04:33:21.684Z,3.35
2023-04-05T04:35:49.862Z,0.57
2023-04-05T04:38:20.866Z,0.65
2023-04-05T04:40:51.222Z,3.80
2023-04-05T04:43:19.701Z,0.52
2023-04-05T04:45:48.677Z,1.27
2023-04-05T04:48:17.701Z,0.30
2023-04-05T04:50:46.110Z,1.08
2023-04-05T04:53:17.521Z,1.15
2023-04-05T04:55:46.266Z,1.98
2023-04-05T04:58:15.971Z,0.93
2023-04-05T05:00:45.698Z,3.33
2023-04-05T05:03:14.512Z,0.77
2023-04-05T05:05:45.926Z,2.75
2023-04-05T05:08:14.580Z,1.13
2023-04-05T05:10:43.082Z,1.92
2023-04-05T05:13:12.336Z,0.73
2023-04-05T05:15:42.513Z,1.08
2023-04-05T05:18:10.886Z,2.63
2023-04-05T05:20:39.255Z,0.65
2023-04-05T05:23:07.616Z,0.55
2023-04-05T05:25:35.727Z,0.60
2023-04-05T05:28:03.960Z,1.70
2023-04-05T05:30:32.074Z,1.77
2023-04-05T05:33:02.549Z,2.38
2023-04-05T05:35:30.896Z,1.02
2023-04-05T05:37:59.117Z,0.60
2023-04-05T05:40:27.408Z,0.45
2023-04-05T05:42:55.533Z,0.50
2023-04-05T05:45:23.636Z,0.30
2023-04-05T05:47:52.104Z,0.90
2023-04-05T05:50:22.214Z,0.57
2023-04-05T05:52:50.703Z,1.85
2023-04-05T05:55:19.184Z,0.65
2023-04-05T05:57:47.407Z,1.00
2023-04-05T06:00:16.871Z,0.73
2023-04-05T06:02:45.104Z,2.05
2023-04-05T06:05:13.320Z,0.82
2023-04-05T06:07:42.861Z,0.85
2023-04-05T06:10:12.026Z,1.02
2023-04-05T06:12:40.100Z,0.70
2023-04-05T06:15:09.561Z,0.60
2023-04-05T06:17:42.085Z,1.60
2023-04-05T06:20:11.687Z,1.73
2023-04-05T06:22:41.603Z,0.95
2023-04-05T06:25:13.070Z,1.73
2023-04-05T06:30:10.527Z,1.85
2023-04-05T06:32:38.700Z,3.30
2023-04-05T06:35:08.170Z,1.30
2023-04-05T06:37:36.475Z,1.08
2023-04-05T06:40:05.146Z,0.50
2023-04-05T06:42:34.619Z,1.58
2023-04-05T06:45:04.413Z,3.50
2023-04-05T06:47:35.127Z,4.25
2023-04-05T06:50:03.750Z,3.00
2023-04-05T06:52:32.005Z,2.95
2023-04-05T06:55:00.257Z,1.67
2023-04-05T06:57:28.854Z,3.28
2023-04-05T06:59:58.679Z,3.97
2023-04-05T07:02:27.024Z,2.95
2023-04-05T07:05:00.693Z,2.47
2023-04-05T07:07:28.910Z,4.50
2023-04-05T07:09:57.001Z,2.92
2023-04-05T07:12:26.197Z,6.00
2023-04-05T07:14:54.358Z,2.20
2023-04-05T07:17:23.869Z,7.28
2023-04-05T07:19:52.447Z,1.80
2023-04-05T07:22:20.568Z,2.10
2023-04-05T07:24:48.858Z,5.00
2023-04-05T07:27:17.263Z,2.60
2023-04-05T07:29:47.694Z,3.63
2023-04-05T07:32:16.341Z,3.80
2023-04-05T07:34:45.952Z,3.70
2023-04-05T07:37:14.093Z,4.40
2023-04-05T07:39:42.280Z,4.00
2023-04-05T07:42:10.796Z,5.40
2023-04-05T07:44:38.818Z,3.33
2023-04-05T07:47:07.000Z,9.52
2023-04-05T07:49:35.089Z,5.05
2023-04-05T07:52:04.562Z,3.35
2023-04-05T07:54:33.531Z,6.30
2023-04-05T07:57:02.759Z,8.25
2023-04-05T07:59:30.973Z,4.90
2023-04-05T08:02:08.224Z,5.85
2023-04-05T08:04:40.488Z,5.50
2023-04-05T08:07:10.214Z,2.65
2023-04-05T08:09:38.364Z,5.22
2023-04-05T08:12:07.060Z,5.25
2023-04-05T08:14:35.506Z,6.32
2023-04-05T08:17:03.785Z,5.43
2023-04-05T08:19:31.857Z,4.03
2023-04-05T08:22:00.016Z,5.05
2023-04-05T08:24:29.591Z,2.78
2023-04-05T08:26:57.907Z,3.83
2023-04-05T08:29:26.220Z,5.07
2023-04-05T08:31:54.317Z,5.78
2023-04-05T08:34:22.395Z,6.38
2023-04-05T08:36:50.542Z,6.10
2023-04-05T08:39:19.042Z,3.75
2023-04-05T08:41:57.170Z,8.90
2023-04-05T08:44:27.925Z,8.50
2023-04-05T08:46:57.709Z,4.73
2023-04-05T08:49:26.139Z,6.53
2023-04-05T08:51:54.977Z,3.00
2023-04-05T08:54:23.200Z,4.68
2023-04-05T08:56:55.176Z,3.50
2023-04-05T08:59:25.166Z,4.68
2023-04-05T09:01:55.158Z,2.47
2023-04-05T09:04:24.695Z,2.05
2023-04-05T09:06:53.561Z,6.68
2023-04-05T09:09:24.040Z,1.83
2023-04-05T09:11:54.157Z,4.38
2023-04-05T09:14:23.084Z,6.82
2023-04-05T09:16:51.324Z,4.28
2023-04-05T09:19:19.530Z,5.10
2023-04-05T09:22:00.824Z,2.35
2023-04-05T09:24:35.162Z,3.35
2023-04-05T09:27:10.019Z,3.67
2023-04-05T09:29:39.247Z,4.63
2023-04-05T09:32:09.351Z,7.90
2023-04-05T09:34:38.131Z,2.70
2023-04-05T09:37:14.796Z,3.45
2023-04-05T09:39:42.980Z,6.28
2023-04-05T09:42:14.882Z,1.85
2023-04-05T09:44:53.704Z,2.17
2023-04-05T09:47:23.289Z,5.53
2023-04-05T09:49:51.833Z,2.65
2023-04-05T09:52:21.470Z,1.15
2023-04-05T09:54:50.194Z,5.30
2023-04-05T09:57:20.088Z,2.90
2023-04-05T09:59:48.915Z,3.70
2023-04-05T10:02:17.359Z,0.98
2023-04-05T10:04:48.374Z,4.18
2023-04-05T10:07:18.332Z,2.30
2023-04-05T10:09:49.378Z,3.08
2023-04-05T10:12:27.443Z,2.15
2023-04-05T10:14:57.050Z,1.33
2023-04-05T10:17:29.593Z,2.22
2023-04-05T10:20:10.816Z,4.40
2023-04-05T10:22:52.414Z,1.02
2023-04-05T10:28:03.203Z,2.92
2023-04-05T10:30:37.505Z,3.33
2023-04-05T10:33:14.685Z,1.33
2023-04-05T10:35:55.050Z,3.72
2023-04-05T10:38:26.662Z,2.92
2023-04-05T10:43:27.425Z,2.58
2023-04-05T10:45:56.368Z,8.13
2023-04-05T10:48:36.339Z,3.33
2023-04-05T10:51:05.754Z,4.47
2023-04-05T10:53:35.100Z,4.85
2023-04-05T10:56:03.533Z,6.35
2023-04-05T10:58:34.371Z,4.43
2023-04-05T11:01:04.475Z,2.63
2023-04-05T11:03:49.683Z,3.40
2023-04-05T11:06:23.550Z,3.35
2023-04-05T11:08:55.542Z,3.45
2023-04-05T11:11:27.154Z,2.22
2023-04-05T11:13:57.548Z,3.95
2023-04-05T11:16:40.524Z,6.93
2023-04-05T11:19:08.898Z,1.23
2023-04-05T11:21:37.039Z,3.92
2023-04-05T11:24:08.243Z,2.72
2023-04-05T11:26:55.189Z,4.95
2023-04-05T11:29:54.483Z,2.63
2023-04-05T11:32:23.408Z,2.35
2023-04-05T11:35:02.065Z,3.35
2023-04-05T11:38:08.134Z,1.98
2023-04-05T11:40:37.861Z,2.05
2023-04-05T11:43:07.895Z,0.90
2023-04-05T11:45:39.286Z,5.65
2023-04-05T11:48:08.819Z,3.63
2023-04-05T11:50:39.414Z,2.85
2023-04-05T11:53:15.058Z,3.20
2023-04-05T11:55:44.597Z,4.95
2023-04-05T11:58:14.496Z,6.53
2023-04-05T12:00:44.732Z,1.55
2023-04-05T12:03:14.225Z,3.13
2023-04-05T12:05:50.169Z,3.67
2023-04-05T12:08:19.075Z,2.17
2023-04-05T12:10:55.555Z,4.18
2023-04-05T12:13:28.335Z,2.03
2023-04-05T12:15:59.582Z,2.63
2023-04-05T12:18:28.977Z,2.05
2023-04-05T12:20:57.468Z,4.03
2023-04-05T12:23:27.079Z,2.15
2023-04-05T12:25:56.920Z,1.75
2023-04-05T12:28:25.523Z,6.75
2023-04-05T12:30:54.922Z,3.25
2023-04-05T12:33:33.082Z,7.70
2023-04-05T12:36:06.845Z,5.55
2023-04-05T12:38:35.109Z,3.42
2023-04-05T12:41:04.368Z,3.13
2023-04-05T12:43:41.003Z,1.33
2023-04-05T12:46:12.560Z,2.17
2023-04-05T12:48:43.491Z,2.55
2023-04-05T12:51:17.713Z,1.95
2023-04-05T12:53:47.759Z,0.95
2023-04-05T12:56:17.209Z,3.25
2023-04-05T12:58:45.384Z,2.55
2023-04-05T13:01:14.236Z,1.88
2023-04-05T13:03:46.961Z,1.60
2023-04-05T13:06:16.570Z,2.70
2023-04-05T13:08:44.741Z,2.55
2023-04-05T13:11:12.850Z,3.10
2023-04-05T13:13:41.027Z,3.13
2023-04-05T13:16:09.233Z,1.45
2023-04-05T13:18:37.623Z,5.97
2023-04-05T13:21:09.377Z,3.20
2023-04-05T13:23:38.803Z,3.45
2023-04-05T13:26:07.975Z,0.98
2023-04-05T13:28:36.417Z,1.42
2023-04-05T13:31:06.453Z,4.60
2023-04-05T13:33:34.896Z,1.10
2023-04-05T13:36:03.096Z,2.03
2023-04-05T13:38:32.768Z,3.03
2023-04-05T13:41:00.882Z,1.33
2023-04-05T13:43:31.453Z,4.95
2023-04-05T13:45:59.646Z,1.17
2023-04-05T13:48:27.859Z,2.00
2023-04-05T13:50:56.005Z,0.63
2023-04-05T13:53:24.942Z,2.13
2023-04-05T13:55:55.544Z,0.95
2023-04-05T13:58:23.784Z,2.25
2023-04-05T14:00:53.637Z,1.90
2023-04-05T14:03:22.013Z,2.22
2023-04-05T14:05:51.783Z,1.60
2023-04-05T14:08:21.240Z,2.55
2023-04-05T14:10:50.169Z,1.98
2023-04-05T14:13:19.707Z,1.75
2023-04-05T14:15:47.849Z,2.55
2023-04-05T14:18:16.185Z,1.60
2023-04-05T14:20:44.394Z,1.92
2023-04-05T14:23:12.615Z,3.28
2023-04-05T14:25:41.003Z,1.50
2023-04-05T14:28:09.239Z,1.15
2023-04-05T14:30:39.106Z,1.15
2023-04-05T14:33:07.594Z,1.10
2023-04-05T14:35:35.721Z,1.55
2023-04-05T14:38:03.988Z,3.13
2023-04-05T14:40:32.191Z,1.98
2023-04-05T14:43:00.370Z,1.65
2023-04-05T14:45:28.846Z,1.92
2023-04-05T14:47:58.498Z,1.25
2023-04-05T14:50:26.742Z,1.52
2023-04-05T14:52:54.923Z,5.45
2023-04-05T14:55:22.984Z,1.98
2023-04-05T14:57:51.391Z,2.63
2023-04-05T15:00:20.758Z,2.80
2023-04-05T15:02:52.027Z,3.47
2023-04-05T15:07:49.751Z,2.90
2023-04-05T15:10:18.519Z,1.85
2023-04-05T15:12:46.584Z,3.38
2023-04-05T15:15:14.795Z,0.75
2023-04-05T15:17:43.052Z,3.28
2023-04-05T15:20:11.827Z,2.25
2023-04-05T15:22:41.605Z,3.38
2023-04-05T15:25:11.046Z,2.72
2023-04-05T15:27:39.221Z,1.83
2023-04-05T15:30:08.764Z,2.08
2023-04-05T15:32:37.053Z,1.10
2023-04-05T15:35:05.974Z,2.15
2023-04-05T15:37:34.215Z,2.72
2023-04-05T15:40:04.130Z,3.28
2023-04-05T15:42:32.260Z,4.65
2023-04-05T15:45:00.383Z,5.80
2023-04-05T15:47:28.501Z,6.78
2023-04-05T15:49:56.826Z,13.63
2023-04-05T15:52:24.923Z,9.45
2023-04-05T15:54:53.342Z,10.35
2023-04-05T15:57:24.899Z,9.82
2023-04-05T16:02:22.749Z,6.22
2023-04-05T16:04:50.896Z,11.35
2023-04-05T16:07:19.123Z,12.93
2023-04-05T16:09:47.325Z,12.20
2023-04-05T16:12:15.673Z,12.93
2023-04-05T16:14:45.232Z,12.70
2023-04-05T16:17:13.379Z,12.15
2023-04-05T16:19:41.703Z,11.70
2023-04-05T16:22:09.952Z,19.77
2023-04-05T16:24:39.286Z,20.35
2023-04-05T16:27:07.681Z,22.30
2023-04-05T16:29:35.877Z,10.57
2023-04-05T16:32:05.569Z,43.40
2023-04-05T16:34:33.760Z,23.33
2023-04-05T16:37:02.045Z,21.60
2023-04-05T16:39:30.074Z,22.10
2023-04-05T16:41:58.188Z,20.40
2023-04-05T16:44:26.470Z,12.43
2023-04-05T16:46:54.570Z,15.88
2023-04-05T16:49:24.067Z,17.90
2023-04-05T16:51:52.211Z,13.25
2023-04-05T16:54:21.542Z,13.13
2023-04-05T16:56:49.817Z,14.18
2023-04-05T16:59:18.007Z,18.33
2023-04-05T17:01:46.434Z,10.48
2023-04-05T17:04:14.672Z,9.43
2023-04-05T17:06:44.208Z,17.35
2023-04-05T17:09:12.357Z,12.45
2023-04-05T17:11:40.577Z,13.18
2023-04-05T17:14:08.714Z,19.85
2023-04-05T17:16:37.092Z,19.90
2023-04-05T17:19:05.465Z,18.50
2023-04-05T17:21:35.477Z,13.50
2023-04-05T17:24:05.492Z,10.90
2023-04-05T17:26:33.701Z,21.08
2023-04-05T17:29:01.992Z,12.73
2023-04-05T17:31:30.314Z,12.13
2023-04-05T17:33:58.439Z,20.33
2023-04-05T17:36:27.466Z,12.50
2023-04-05T17:38:55.611Z,12.80
2023-04-05T17:41:25.211Z,13.15
2023-04-05T17:43:53.282Z,22.45
2023-04-05T17:46:30.628Z,16.70
2023-04-05T17:49:06.228Z,10.05
2023-04-05T17:51:34.549Z,13.52
2023-04-05T17:54:02.772Z,12.82
2023-04-05T17:56:32.298Z,13.10
2023-04-05T17:59:00.456Z,18.20
2023-04-05T18:01:29.369Z,18.33
2023-04-05T18:03:59.371Z,14.93
2023-04-05T18:06:27.741Z,18.40
2023-04-05T18:08:55.855Z,13.50
2023-04-05T18:11:25.193Z,18.05
2023-04-05T18:13:54.846Z,15.90
2023-04-05T18:16:23.130Z,18.20
2023-04-05T18:18:51.683Z,21.50
2023-04-05T18:21:19.862Z,16.25
2023-04-05T18:23:48.231Z,10.60
2023-04-05T18:26:18.460Z,16.25
2023-04-05T18:28:47.770Z,24.10
2023-04-05T18:31:17.639Z,12.52
2023-04-05T18:33:45.811Z,14.70
2023-04-05T18:36:14.240Z,23.10
2023-04-05T18:38:42.376Z,11.57
2023-04-05T18:41:12.480Z,26.83
2023-04-05T18:43:40.696Z,19.90
2023-04-05T18:46:08.892Z,15.43
2023-04-05T18:48:39.420Z,9.63
2023-04-05T18:51:07.577Z,12.07
2023-04-05T18:53:35.999Z,15.85
2023-04-05T18:56:04.264Z,19.50
2023-04-05T18:58:32.549Z,16.27
2023-04-05T19:01:05.432Z,11.52
2023-04-05T19:03:33.939Z,14.13
2023-04-05T19:06:03.466Z,18.65
2023-04-05T19:08:31.606Z,21.45
2023-04-05T19:10:59.865Z,20.30
2023-04-05T19:13:28.108Z,18.00
2023-04-05T19:15:56.471Z,12.77
2023-04-05T19:18:27.760Z,20.75
2023-04-05T19:20:56.264Z,17.25
2023-04-05T19:23:26.406Z,21.40
2023-04-05T19:25:55.795Z,14.80
2023-04-05T19:28:24.149Z,14.05
2023-04-05T19:30:52.405Z,15.82
2023-04-05T19:33:21.916Z,17.42
2023-04-05T19:35:50.682Z,18.73
2023-04-05T19:38:18.975Z,17.45
2023-04-05T19:40:48.477Z,18.20
2023-04-05T19:43:17.150Z,15.30
2023-04-05T19:45:45.830Z,16.90
2023-04-05T19:48:38.888Z,12.77
2023-04-05T19:51:08.332Z,20.23
2023-04-05T19:53:51.245Z,17.10
2023-04-05T19:56:23.665Z,18.75
2023-04-05T19:58:57.911Z,16.58
2023-04-05T20:01:47.225Z,10.98
2023-04-05T20:04:18.805Z,7.95
2023-04-05T20:09:22.925Z,10.70
2023-04-05T20:11:56.486Z,11.75
2023-04-05T20:14:28.605Z,14.55
2023-04-05T20:16:57.794Z,9.07
2023-04-05T20:19:29.688Z,5.53
2023-04-05T20:21:59.049Z,8.00
2023-04-05T20:24:27.895Z,7.63
2023-04-05T20:26:58.082Z,9.43
2023-04-05T20:29:27.893Z,10.90
2023-04-05T20:31:56.708Z,5.68
2023-04-05T20:34:29.479Z,6.85
2023-04-05T20:37:00.202Z,1.52
2023-04-05T20:39:28.681Z,6.73
2023-04-05T20:41:58.422Z,8.68
2023-04-05T20:44:27.034Z,5.50
2023-04-05T20:46:57.950Z,4.50
2023-04-05T20:49:26.425Z,7.70
2023-04-05T20:51:55.854Z,6.25
2023-04-05T20:54:24.445Z,5.00
2023-04-05T20:56:53.295Z,3.25
2023-04-05T20:59:23.256Z,11.55
2023-04-05T21:01:51.617Z,15.25
2023-04-05T21:04:19.743Z,6.47
2023-04-05T21:06:47.879Z,2.75
2023-04-05T21:09:16.117Z,5.13
2023-04-05T21:11:44.253Z,3.83
2023-04-05T21:14:12.607Z,5.43
2023-04-05T21:16:42.220Z,7.20
2023-04-05T21:19:10.783Z,6.43
2023-04-05T21:21:39.264Z,6.38
2023-04-05T21:24:09.104Z,5.18
2023-04-05T21:26:37.320Z,8.45
2023-04-05T21:29:05.742Z,11.80
2023-04-05T21:31:34.173Z,4.38
2023-04-05T21:34:03.729Z,7.03
2023-04-05T21:36:31.882Z,7.50
2023-04-05T21:39:00.031Z,4.75
2023-04-05T21:41:28.134Z,8.13
2023-04-05T21:43:57.492Z,4.40
2023-04-05T21:46:25.573Z,6.47
2023-04-05T21:48:53.695Z,4.15
2023-04-05T21:51:24.014Z,10.95
2023-04-05T21:53:52.149Z,14.43
2023-04-05T21:56:20.261Z,6.25
2023-04-05T21:58:48.571Z,4.13
2023-04-05T22:01:16.870Z,2.72
2023-04-05T22:03:45.077Z,2.97
2023-04-05T22:06:13.314Z,7.75
2023-04-05T22:08:42.964Z,12.35
2023-04-05T22:11:11.161Z,4.40
2023-04-05T22:13:39.403Z,3.45
2023-04-05T22:16:08.348Z,5.75
2023-04-05T22:18:36.534Z,5.25
2023-04-05T22:21:05.081Z,2.42
2023-04-05T22:23:33.348Z,4.45
2023-04-05T22:26:02.952Z,4.50
2023-04-05T22:28:31.355Z,5.07
2023-04-05T22:30:59.566Z,6.47
2023-04-05T22:33:27.765Z,6.50
2023-04-05T22:35:55.929Z,5.38
2023-04-05T22:38:24.143Z,4.82
2023-04-05T22:40:52.330Z,6.90
2023-04-05T22:43:21.911Z,4.30
2023-04-05T22:45:52.170Z,10.35
2023-04-05T22:48:20.825Z,8.70
2023-04-05T22:50:49.196Z,8.07
2023-04-05T22:53:17.487Z,4.32
2023-04-05T22:55:45.661Z,11.15
2023-04-05T22:58:13.877Z,8.00
2023-04-05T23:00:43.790Z,3.25
2023-04-05T23:03:12.076Z,5.15
2023-04-05T23:05:40.412Z,6.28
2023-04-05T23:08:08.529Z,7.22
2023-04-05T23:10:36.780Z,10.20
2023-04-05T23:13:05.018Z,8.13
2023-04-05T23:15:33.207Z,7.28
2023-04-05T23:18:02.871Z,8.95
2023-04-05T23:20:31.168Z,6.43
2023-04-05T23:22:59.360Z,9.40
2023-04-05T23:25:27.698Z,6.57
2023-04-05T23:27:55.888Z,4.65
2023-04-05T23:30:24.089Z,8.88
2023-04-05T23:32:52.250Z,10.13
2023-04-05T23:35:22.072Z,7.38
2023-04-05T23:37:50.372Z,8.93
2023-04-05T23:40:18.589Z,6.80
2023-04-05T23:42:46.701Z,7.55
2023-04-05T23:45:14.963Z,6.85
2023-04-05T23:47:43.175Z,6.97
2023-04-05T23:50:11.712Z,5.72
2023-04-05T23:52:41.404Z,6.90
2023-04-05T23:55:10.485Z,14.85
2023-04-05T23:57:38.747Z,8.88
